Time;durP1;ratioP1;P1;durP2;ratioP2;P2;SDS_P1;SDS_P2;PMS_P1;PMS_P2;Temp;Humidity;BMP_temperature;BMP_pressure;BME280_temperature;BME280_humidity;BME280_pressure;Samples;Min_cycle;Max_cycle;Signal;HPM_P1;HPM_P2
2023/05/31 00:00:24;;;;;;;16.15;8.20;;;;;;;12.53;100.00;102135.28;5008823;28;20483;-75
2023/05/31 00:02:51;;;;;;;17.20;7.82;;;;;;;12.48;100.00;102133.69;5009342;28;20050;-75
2023/05/31 00:05:17;;;;;;;18.02;7.75;;;;;;;12.46;100.00;102127.69;5006066;28;20042;-72
2023/05/31 00:07:44;;;;;;;20.35;7.65;;;;;;;12.44;100.00;102124.53;5005381;28;20046;-72
2023/05/31 00:10:11;;;;;;;16.17;8.07;;;;;;;12.40;100.00;102126.47;4994388;28;20112;-73
2023/05/31 00:12:37;;;;;;;18.13;7.97;;;;;;;12.40;100.00;102134.84;5003651;28;20049;-72
2023/05/31 00:15:04;;;;;;;17.92;7.65;;;;;;;12.30;100.00;102138.38;5008989;28;20084;-74
2023/05/31 00:17:31;;;;;;;17.15;7.72;;;;;;;12.30;100.00;102137.59;5009762;28;20497;-71
2023/05/31 00:20:16;;;;;;;15.52;7.75;;;;;;;12.30;100.00;102132.03;5000580;28;20050;-72
2023/05/31 00:22:43;;;;;;;17.15;8.50;;;;;;;12.29;100.00;102133.22;5007065;28;20137;-73
2023/05/31 00:25:09;;;;;;;16.65;7.78;;;;;;;12.27;100.00;102132.81;5009356;28;20479;-73
2023/05/31 00:27:36;;;;;;;16.85;7.60;;;;;;;12.20;100.00;102133.59;5002377;28;20082;-72
2023/05/31 00:30:02;;;;;;;17.83;9.30;;;;;;;12.15;100.00;102136.75;5001462;28;20116;-72
2023/05/31 00:32:29;;;;;;;16.40;8.15;;;;;;;12.17;100.00;102128.00;5004382;28;20099;-73
2023/05/31 00:34:55;;;;;;;17.17;7.97;;;;;;;12.18;100.00;102122.03;5007152;28;20432;-72
2023/05/31 00:37:22;;;;;;;17.88;8.77;;;;;;;12.11;100.00;102122.03;5011034;28;20084;-72
2023/05/31 00:39:48;;;;;;;16.77;8.07;;;;;;;12.09;100.00;102127.19;4999206;28;20077;-71
2023/05/31 00:42:16;;;;;;;17.75;9.05;;;;;;;12.06;100.00;102125.19;5005030;28;20051;-72
2023/05/31 00:44:42;;;;;;;18.30;9.05;;;;;;;12.06;100.00;102118.84;5000673;28;20105;-73
2023/05/31 00:47:09;;;;;;;17.25;7.43;;;;;;;12.06;100.00;102127.97;5006797;28;20045;-72
2023/05/31 00:49:36;;;;;;;15.68;8.25;;;;;;;12.10;100.00;102130.78;5001313;28;20412;-73
2023/05/31 00:52:03;;;;;;;17.55;8.70;;;;;;;12.07;100.00;102129.59;5008223;28;20112;-73
2023/05/31 00:54:30;;;;;;;18.90;8.57;;;;;;;12.09;100.00;102138.34;5002832;28;20046;-72
2023/05/31 00:56:57;;;;;;;16.88;8.23;;;;;;;12.06;100.00;102133.53;5008073;28;20133;-72
2023/05/31 00:59:23;;;;;;;16.88;8.55;;;;;;;11.97;100.00;102135.13;5001470;28;20077;-74
2023/05/31 01:01:51;;;;;;;17.92;8.73;;;;;;;11.99;100.00;102138.31;5008904;28;20065;-73
2023/05/31 01:04:18;;;;;;;18.23;8.23;;;;;;;11.98;100.00;102131.94;5013558;28;20046;-74
2023/05/31 01:06:46;;;;;;;19.38;8.93;;;;;;;11.99;100.00;102138.31;5007291;28;20081;-73
2023/05/31 01:09:12;;;;;;;18.70;8.48;;;;;;;11.97;100.00;102138.72;5002824;28;20054;-73
2023/05/31 01:12:05;;;;;;;18.23;8.48;;;;;;;11.91;100.00;102143.06;5002649;28;20108;-73
2023/05/31 01:14:41;;;;;;;18.27;8.88;;;;;;;11.88;100.00;102134.69;5007353;28;20108;-73
2023/05/31 01:17:22;;;;;;;16.50;8.52;;;;;;;11.86;100.00;102135.09;5008906;28;20673;-69
2023/05/31 01:19:53;;;;;;;15.70;7.90;;;;;;;11.86;100.00;102137.88;5022734;28;20049;-73
2023/05/31 01:22:56;;;;;;;18.70;8.10;;;;;;;11.86;100.00;102137.88;5008303;28;20057;-72
2023/05/31 01:25:31;;;;;;;16.30;8.00;;;;;;;11.82;100.00;102137.06;4983723;28;20065;-73
2023/05/31 01:27:59;;;;;;;20.65;9.00;;;;;;;11.77;100.00;102143.00;4999473;28;20491;-72
2023/05/31 01:30:29;;;;;;;17.92;8.27;;;;;;;11.73;100.00;102133.03;5001950;28;20078;-73
2023/05/31 01:33:00;;;;;;;19.92;8.93;;;;;;;11.71;100.00;102135.41;5011087;28;20059;-69
2023/05/31 01:35:27;;;;;;;17.80;9.10;;;;;;;11.66;100.00;102136.59;5008611;28;20054;-71
2023/05/31 01:37:53;;;;;;;16.88;8.32;;;;;;;11.60;100.00;102131.78;5008338;28;20053;-72
2023/05/31 01:40:20;;;;;;;16.60;8.23;;;;;;;11.58;100.00;102131.38;5003880;28;20049;-72
2023/05/31 01:42:49;;;;;;;22.10;9.20;;;;;;;11.60;100.00;102132.59;5006238;28;20046;-72
2023/05/31 01:45:17;;;;;;;18.45;9.65;;;;;;;11.59;100.00;102142.13;5006381;28;20052;-71
2023/05/31 01:47:45;;;;;;;18.42;8.65;;;;;;;11.58;100.00;102139.75;5008946;28;20046;-72
2023/05/31 01:50:13;;;;;;;19.98;8.95;;;;;;;11.55;100.00;102141.31;5006337;28;20069;-72
2023/05/31 01:52:40;;;;;;;17.60;9.02;;;;;;;11.55;100.00;102144.09;5016397;28;20061;-72
2023/05/31 01:55:07;;;;;;;18.05;8.60;;;;;;;11.55;100.00;102143.31;5008015;28;20050;-73
2023/05/31 01:57:38;;;;;;;19.73;9.18;;;;;;;11.48;100.00;102146.06;5003809;28;20054;-72
2023/05/31 02:00:11;;;;;;;18.95;8.82;;;;;;;11.45;100.00;102144.81;5001956;28;20053;-71
2023/05/31 02:02:47;;;;;;;16.63;8.18;;;;;;;11.44;100.00;102143.25;5010171;28;20100;-72
2023/05/31 02:05:15;;;;;;;16.80;8.10;;;;;;;11.46;100.00;102145.63;5008889;28;20080;-72
2023/05/31 02:07:43;;;;;;;15.77;8.40;;;;;;;11.47;100.00;102136.09;5007038;28;20090;-72
2023/05/31 02:10:11;;;;;;;18.60;8.02;;;;;;;11.44;100.00;102140.44;5009361;28;20081;-71
2023/05/31 02:12:38;;;;;;;20.75;8.73;;;;;;;11.40;100.00;102147.19;5004387;28;20049;-72
2023/05/31 02:15:10;;;;;;;20.33;9.40;;;;;;;11.34;100.00;102141.19;5004287;28;20045;-72
2023/05/31 02:17:42;;;;;;;18.23;9.30;;;;;;;11.29;100.00;102147.13;5009230;28;20060;-69
2023/05/31 02:20:14;;;;;;;17.48;9.05;;;;;;;11.28;100.00;102147.53;5008067;28;20082;-69
2023/05/31 02:22:42;;;;;;;19.05;10.27;;;;;;;11.28;100.00;102141.97;5008541;28;20149;-71
2023/05/31 02:25:10;;;;;;;21.30;9.93;;;;;;;11.26;100.00;102153.47;4997313;28;20061;-72
2023/05/31 02:27:37;;;;;;;19.02;8.98;;;;;;;11.25;100.00;102145.50;5004702;28;20093;-69
2023/05/31 02:30:06;;;;;;;24.13;9.80;;;;;;;11.22;100.00;102137.91;5003857;28;20173;-71
2023/05/31 02:32:35;;;;;;;19.20;9.00;;;;;;;11.20;100.00;102135.50;5006881;28;20778;-72
2023/05/31 02:35:06;;;;;;;22.48;9.60;;;;;;;11.15;100.00;102138.66;5005335;28;20046;-71
2023/05/31 02:37:34;;;;;;;18.20;9.50;;;;;;;11.15;100.00;102137.84;5001402;28;20692;-73
2023/05/31 02:40:08;;;;;;;20.48;10.50;;;;;;;11.11;100.00;102143.38;5008654;28;20131;-73
2023/05/31 02:42:37;;;;;;;19.67;10.00;;;;;;;11.01;100.00;102143.31;5001319;28;20198;-73
2023/05/31 02:45:04;;;;;;;19.50;10.05;;;;;;;10.99;100.00;102143.72;5005463;28;20693;-72
2023/05/31 02:47:31;;;;;;;18.75;9.20;;;;;;;10.97;100.00;102142.50;5003582;28;20050;-73
2023/05/31 02:49:58;;;;;;;19.70;9.18;;;;;;;10.98;100.00;102144.09;5006586;28;20516;-71
2023/05/31 02:52:26;;;;;;;22.02;10.35;;;;;;;10.96;100.00;102140.88;5007734;28;20111;-73
2023/05/31 02:54:52;;;;;;;19.05;9.90;;;;;;;10.96;100.00;102138.91;5002332;28;20074;-72
2023/05/31 02:57:19;;;;;;;22.23;10.15;;;;;;;10.93;100.00;102136.91;5000263;28;20046;-73
2023/05/31 02:59:46;;;;;;;23.15;10.10;;;;;;;10.90;100.00;102131.31;5022685;28;20787;-73
2023/05/31 03:02:12;;;;;;;22.08;10.73;;;;;;;10.93;100.00;102141.66;5016423;28;20045;-74
2023/05/31 03:04:41;;;;;;;23.73;11.15;;;;;;;10.90;100.00;102137.66;5000877;28;20053;-73
2023/05/31 03:07:08;;;;;;;22.67;12.02;;;;;;;10.89;100.00;102130.50;5002260;28;20077;-71
2023/05/31 03:09:34;;;;;;;21.35;10.75;;;;;;;10.86;100.00;102131.28;5007751;28;20136;-72
2023/05/31 03:12:02;;;;;;;21.65;10.65;;;;;;;10.89;100.00;102132.47;5004429;28;20050;-73
2023/05/31 03:14:29;;;;;;;25.13;11.05;;;;;;;10.91;100.00;102121.78;5007288;28;20053;-71
2023/05/31 03:16:55;;;;;;;23.80;11.77;;;;;;;10.89;100.00;102126.91;5007246;28;20050;-73
2023/05/31 03:19:22;;;;;;;29.05;12.65;;;;;;;10.82;100.00;102124.91;5006761;28;20045;-72
2023/05/31 03:21:49;;;;;;;22.35;10.98;;;;;;;10.84;100.00;102122.50;5007992;28;20053;-73
2023/05/31 03:24:16;;;;;;;21.85;11.15;;;;;;;10.84;100.00;102136.41;5003118;28;20050;-73
2023/05/31 03:26:42;;;;;;;28.50;12.18;;;;;;;10.75;100.00;102124.03;5006074;28;20112;-71
2023/05/31 03:29:09;;;;;;;22.10;11.38;;;;;;;10.76;100.00;102129.22;5008061;28;20053;-73
2023/05/31 03:31:36;;;;;;;25.80;12.35;;;;;;;10.73;100.00;102135.53;5007746;28;20057;-73
2023/05/31 03:34:03;;;;;;;23.85;11.48;;;;;;;10.73;100.00;102134.75;5003689;28;20088;-71
2023/05/31 03:36:29;;;;;;;22.40;10.13;;;;;;;10.74;100.00;102139.91;5007539;28;20046;-73
2023/05/31 03:38:56;;;;;;;23.08;11.40;;;;;;;10.70;100.00;102139.09;5010763;28;20516;-71
2023/05/31 03:41:22;;;;;;;21.95;11.40;;;;;;;10.65;100.00;102145.03;5008863;28;20136;-72
2023/05/31 03:43:50;;;;;;;26.73;12.55;;;;;;;10.64;100.00;102140.66;5002916;28;20872;-73
2023/05/31 03:46:17;;;;;;;24.02;11.60;;;;;;;10.67;100.00;102141.84;5004194;28;20054;-71
2023/05/31 03:48:43;;;;;;;25.05;12.10;;;;;;;10.69;100.00;102139.47;5005468;28;20311;-73
2023/05/31 03:51:10;;;;;;;26.15;11.85;;;;;;;10.67;100.00;102137.06;5006148;28;20057;-72
2023/05/31 03:53:37;;;;;;;26.85;12.52;;;;;;;10.69;100.00;102139.47;5003380;28;20575;-72
2023/05/31 03:56:03;;;;;;;25.77;11.18;;;;;;;10.70;100.00;102132.75;5005690;28;20571;-72
2023/05/31 03:58:30;;;;;;;23.38;11.88;;;;;;;10.69;100.00;102131.13;5003775;28;20053;-72
2023/05/31 04:00:57;;;;;;;26.60;12.98;;;;;;;10.71;100.00;102134.34;5014201;28;20440;-69
2023/05/31 04:03:25;;;;;;;24.13;12.50;;;;;;;10.70;100.00;102129.97;5010388;28;20148;-76
2023/05/31 04:05:51;;;;;;;24.73;12.30;;;;;;;10.71;100.00;102129.59;5000806;28;20051;-72
2023/05/31 04:08:18;;;;;;;24.77;12.98;;;;;;;10.75;100.00;102127.63;5005748;28;20041;-72
2023/05/31 04:10:45;;;;;;;26.40;11.73;;;;;;;10.79;100.00;102130.41;5006479;28;20061;-72
2023/05/31 04:13:11;;;;;;;25.00;12.20;;;;;;;10.81;100.00;102130.84;5010783;28;20056;-73
2023/05/31 04:15:38;;;;;;;27.50;13.05;;;;;;;10.84;100.00;102127.28;5005593;28;20054;-72
2023/05/31 04:18:04;;;;;;;25.10;11.80;;;;;;;10.84;100.00;102132.84;5002624;28;20050;-71
2023/05/31 04:20:31;;;;;;;25.08;12.30;;;;;;;10.84;100.00;102130.84;5003405;28;20714;-71
2023/05/31 04:22:58;;;;;;;24.92;12.75;;;;;;;10.83;100.00;102132.06;4999583;28;20046;-72
2023/05/31 04:25:24;;;;;;;28.02;13.23;;;;;;;10.86;100.00;102128.50;5005614;28;20504;-72
2023/05/31 04:27:51;;;;;;;25.02;12.80;;;;;;;10.85;100.00;102131.66;5004050;28;20053;-72
2023/05/31 04:30:18;;;;;;;27.02;13.20;;;;;;;10.86;100.00;102142.41;5001534;28;20045;-72
2023/05/31 04:32:44;;;;;;;29.52;13.48;;;;;;;10.90;100.00;102136.88;5007037;28;20141;-71
2023/05/31 04:35:11;;;;;;;27.63;14.48;;;;;;;10.93;100.00;102134.13;5005145;28;20052;-71
2023/05/31 04:37:39;;;;;;;30.23;13.68;;;;;;;10.99;100.00;102135.38;5005779;28;20546;-73
2023/05/31 04:40:08;;;;;;;24.63;13.90;;;;;;;11.05;100.00;102139.38;5010864;28;20042;-74
2023/05/31 04:42:40;;;;;;;29.40;13.85;;;;;;;11.08;100.00;102135.03;5007487;28;20737;-73
2023/05/31 04:45:07;;;;;;;30.98;13.07;;;;;;;11.14;100.00;102133.47;5011253;28;20058;-73
2023/05/31 04:47:34;;;;;;;27.08;13.55;;;;;;;11.20;100.00;102134.69;5019423;28;20119;-72
2023/05/31 04:50:00;;;;;;;31.42;13.20;;;;;;;11.25;100.00;102131.59;5000484;28;20053;-71
2023/05/31 04:52:32;;;;;;;36.13;15.88;;;;;;;11.28;100.00;102134.38;5003970;28;20104;-71
2023/05/31 04:55:00;;;;;;;27.05;13.25;;;;;;;11.31;100.00;102136.38;5010615;28;20431;-73
2023/05/31 04:57:28;;;;;;;26.33;12.98;;;;;;;11.36;100.00;102138.00;5015652;28;20160;-72
2023/05/31 04:59:58;;;;;;;27.92;13.38;;;;;;;11.42;100.00;102145.63;4999870;28;20365;-71
2023/05/31 05:02:26;;;;;;;29.73;13.05;;;;;;;11.42;100.00;102148.41;5021523;28;20456;-72
2023/05/31 05:04:53;;;;;;;24.88;12.75;;;;;;;11.50;100.00;102152.03;5010401;28;20056;-69
2023/05/31 05:07:21;;;;;;;25.08;13.02;;;;;;;11.55;100.00;102151.66;5007565;28;20840;-72
2023/05/31 05:09:47;;;;;;;24.33;12.75;;;;;;;11.62;100.00;102152.47;5008455;28;20160;-72
2023/05/31 05:12:14;;;;;;;24.95;11.93;;;;;;;11.67;100.00;102148.53;5012679;28;20053;-72
2023/05/31 05:14:40;;;;;;;27.15;11.75;;;;;;;11.72;100.00;102148.16;5010904;28;20073;-73
2023/05/31 05:17:07;;;;;;;29.95;12.55;;;;;;;11.79;100.00;102139.84;5016708;28;20081;-72
2023/05/31 05:19:34;;;;;;;25.73;12.70;;;;;;;11.87;100.00;102141.44;4998091;28;20078;-71
2023/05/31 05:22:00;;;;;;;30.75;13.60;;;;;;;11.93;100.00;102139.88;5003825;28;20053;-72
2023/05/31 05:24:27;;;;;;;29.48;14.15;;;;;;;11.94;100.00;102128.34;5017381;28;20054;-70
2023/05/31 05:26:54;;;;;;;26.92;12.48;;;;;;;12.06;100.00;102139.13;5010086;28;20080;-73
2023/05/31 05:29:20;;;;;;;27.98;11.90;;;;;;;12.11;100.00;102141.53;5004188;28;20132;-72
2023/05/31 05:31:48;;;;;;;28.40;13.30;;;;;;;12.13;100.00;102149.50;5009663;28;20049;-72
2023/05/31 05:34:15;;;;;;;23.75;11.82;;;;;;;12.19;100.00;102154.31;5004068;28;20064;-74
2023/05/31 05:36:41;;;;;;;24.75;11.98;;;;;;;12.22;100.00;102153.50;5009408;28;20096;-74
2023/05/31 05:39:08;;;;;;;29.33;12.63;;;;;;;12.27;100.00;102153.16;5009968;28;20711;-71
2023/05/31 05:41:35;;;;;;;22.63;11.13;;;;;;;12.34;100.00;102155.13;5007367;28;20046;-72
2023/05/31 05:44:02;;;;;;;26.45;12.05;;;;;;;12.38;100.00;102148.41;5007124;28;20512;-72
2023/05/31 05:46:28;;;;;;;23.67;11.38;;;;;;;12.43;100.00;102150.03;5005687;28;20129;-74
2023/05/31 05:48:56;;;;;;;27.45;12.68;;;;;;;12.51;100.00;102146.03;5012512;28;20103;-72
2023/05/31 05:51:22;;;;;;;24.33;11.95;;;;;;;12.49;100.00;102149.22;5009717;28;20582;-68
2023/05/31 05:53:49;;;;;;;23.52;10.60;;;;;;;12.56;100.00;102142.88;5011752;28;20717;-73
2023/05/31 05:56:18;;;;;;;22.40;10.55;;;;;;;12.64;100.00;102146.44;5009437;28;20050;-71
2023/05/31 05:58:46;;;;;;;24.10;11.05;;;;;;;12.70;100.00;102153.22;5006909;28;20535;-73
2023/05/31 06:01:18;;;;;;;24.88;12.25;;;;;;;12.71;100.00;102163.19;5008548;28;20050;-73
2023/05/31 06:03:47;;;;;;;25.85;12.00;;;;;;;12.77;100.00;102154.03;5017555;28;20060;-72
2023/05/31 06:06:14;;;;;;;30.48;12.88;;;;;;;12.84;100.00;102153.22;5009568;28;20116;-74
2023/05/31 06:08:41;;;;;;;25.00;12.35;;;;;;;12.90;100.00;102154.44;5015453;28;20049;-71
2023/05/31 06:11:07;;;;;;;21.15;10.82;;;;;;;12.94;100.00;102158.00;5006660;28;20546;-73
2023/05/31 06:13:34;;;;;;;30.25;11.48;;;;;;;13.04;100.00;102154.41;5002929;28;20136;-75
2023/05/31 06:16:03;;;;;;;23.63;10.98;;;;;;;13.13;100.00;102152.81;5001352;28;20103;-70
2023/05/31 06:18:29;;;;;;;26.33;11.43;;;;;;;13.20;100.00;102165.97;5009199;28;20049;-72
2023/05/31 06:20:56;;;;;;;23.70;10.55;;;;;;;13.21;100.00;102162.78;5001746;28;20069;-74
2023/05/31 06:23:23;;;;;;;27.15;10.70;;;;;;;13.29;100.00;102160.75;5001402;28;20579;-73
2023/05/31 06:25:49;;;;;;;27.05;12.05;;;;;;;13.34;100.00;102161.19;5015498;28;20061;-74
2023/05/31 06:28:16;;;;;;;24.50;10.00;;;;;;;13.40;100.00;102164.34;5012149;28;20482;-73
2023/05/31 06:30:42;;;;;;;28.17;10.95;;;;;;;13.47;100.00;102150.41;5031390;28;20080;-73
2023/05/31 06:33:09;;;;;;;24.85;10.43;;;;;;;13.47;100.00;102145.59;5009099;28;20104;-73
2023/05/31 06:35:36;;;;;;;27.23;10.95;;;;;;;13.61;100.00;102151.13;5008272;28;20052;-70
2023/05/31 06:38:03;;;;;;;24.73;11.13;;;;;;;13.70;100.00;102153.50;5008869;28;20575;-74
2023/05/31 06:40:30;;;;;;;22.33;9.82;;;;;;;13.80;100.00;102158.25;5008166;28;20050;-74
2023/05/31 06:42:56;;;;;;;21.92;9.13;;;;;;;13.87;100.00;102153.44;5006550;28;20805;-71
2023/05/31 06:45:24;;;;;;;26.65;10.93;;;;;;;13.94;100.00;102156.19;5007246;28;20045;-74
2023/05/31 06:47:51;;;;;;;22.17;9.93;;;;;;;13.97;100.00;102149.00;5006892;28;20057;-72
2023/05/31 06:50:17;;;;;;;23.65;10.77;;;;;;;14.07;100.00;102156.53;5008522;28;20132;-72
2023/05/31 06:52:44;;;;;;;22.95;10.02;;;;;;;14.17;100.00;102147.28;5006550;28;20057;-73
2023/05/31 06:55:10;;;;;;;23.58;10.18;;;;;;;14.24;100.00;102150.06;5003542;28;20077;-72
2023/05/31 06:57:37;;;;;;;23.52;10.52;;;;;;;14.27;100.00;102143.66;5004581;28;20112;-72
2023/05/31 07:00:07;;;;;;;21.17;9.63;;;;;;;14.35;100.00;102148.00;5011234;28;20186;-71
2023/05/31 07:02:33;;;;;;;25.95;11.68;;;;;;;14.40;100.00;102145.56;5011706;28;20099;-74
2023/05/31 07:05:00;;;;;;;21.67;9.52;;;;;;;14.45;100.00;102144.38;5008436;28;20515;-74
2023/05/31 07:07:27;;;;;;;21.50;9.65;;;;;;;14.56;100.00;102140.28;5007881;28;20120;-75
2023/05/31 07:09:54;;;;;;;24.92;10.15;;;;;;;14.64;100.00;102141.03;5008001;28;20081;-76
2023/05/31 07:12:20;;;;;;;21.40;8.88;;;;;;;14.69;100.00;102149.00;5008509;28;20092;-74
2023/05/31 07:14:47;;;;;;;22.23;9.55;;;;;;;14.72;100.00;102140.56;5015612;28;20558;-71
2023/05/31 07:17:13;;;;;;;23.33;9.40;;;;;;;14.83;100.00;102146.09;5008714;28;20065;-71
2023/05/31 07:19:44;;;;;;;24.65;10.25;;;;;;;14.89;100.00;102139.63;5007741;28;20053;-72
2023/05/31 07:22:14;;;;;;;24.73;9.50;;;;;;;15.01;100.00;102141.13;5007972;28;20048;-73
2023/05/31 07:24:41;;;;;;;24.38;10.20;;;;;;;15.08;100.00;102143.06;5008273;28;20165;-71
2023/05/31 07:27:08;;;;;;;20.55;8.57;;;;;;;15.21;100.00;102135.72;5007612;28;20038;-73
2023/05/31 07:29:35;;;;;;;19.48;8.13;;;;;;;15.29;100.00;102146.44;5007735;28;20069;-72
2023/05/31 07:32:01;;;;;;;21.13;9.13;;;;;;;15.37;100.00;102142.41;5000608;28;20065;-73
2023/05/31 07:34:28;;;;;;;24.75;9.55;;;;;;;15.46;100.00;102141.91;4997482;28;20054;-73
2023/05/31 07:36:55;;;;;;;23.00;9.27;;;;;;;15.58;100.00;102136.56;5010475;28;20045;-73
2023/05/31 07:39:22;;;;;;;20.33;9.35;;;;;;;15.63;100.00;102138.09;5006263;28;20107;-74
2023/05/31 07:41:48;;;;;;;19.88;9.07;;;;;;;15.76;100.00;102139.94;5005834;28;20165;-73
2023/05/31 07:44:16;;;;;;;23.10;10.88;;;;;;;15.82;100.00;102132.66;5007294;28;20103;-73
2023/05/31 07:46:43;;;;;;;23.27;9.68;;;;;;;15.91;100.00;102132.13;4995129;28;20070;-74
2023/05/31 07:49:09;;;;;;;21.40;8.50;;;;;;;15.98;100.00;102127.25;5008055;28;20046;-73
2023/05/31 07:51:36;;;;;;;20.80;8.20;;;;;;;16.11;100.00;102127.47;5002434;28;20050;-74
2023/05/31 07:54:03;;;;;;;21.35;9.02;;;;;;;16.21;100.00;102126.53;5005887;28;20077;-72
2023/05/31 07:56:30;;;;;;;23.42;8.98;;;;;;;16.33;100.00;102126.75;5005628;28;20046;-75
2023/05/31 07:58:57;;;;;;;19.95;8.15;;;;;;;16.43;100.00;102119.38;5007164;28;20128;-75
2023/05/31 08:01:23;;;;;;;21.02;7.95;;;;;;;16.51;100.00;102127.28;5011131;28;20088;-74
2023/05/31 08:03:50;;;;;;;23.60;8.10;;;;;;;16.58;100.00;102127.16;5006621;28;20500;-75
2023/05/31 08:06:17;;;;;;;20.02;8.02;;;;;;;16.62;100.00;102125.13;5007061;28;20046;-75
2023/05/31 08:08:44;;;;;;;17.98;7.80;;;;;;;16.72;100.00;102124.16;5004735;28;20128;-74
2023/05/31 08:11:11;;;;;;;24.25;8.57;;;;;;;16.77;100.00;102125.66;5006656;28;20506;-75
2023/05/31 08:13:40;;;;;;;20.65;7.45;;;;;;;16.80;100.00;102124.81;5005595;28;20487;-74
2023/05/31 08:16:07;;;;;;;19.67;7.80;;;;;;;16.88;100.00;102129.09;5004898;28;20046;-75
2023/05/31 08:18:34;;;;;;;22.10;7.88;;;;;;;16.99;100.00;102124.88;4995800;28;20075;-75
2023/05/31 08:21:01;;;;;;;21.23;7.57;;;;;;;17.08;100.00;102110.28;4997679;28;20106;-72
2023/05/31 08:23:28;;;;;;;21.08;7.30;;;;;;;17.20;100.00;102113.28;4999676;28;20038;-75
2023/05/31 08:25:54;;;;;;;17.05;6.45;;;;;;;17.35;100.00;102116.59;5004680;28;20168;-74
2023/05/31 08:28:21;;;;;;;17.27;7.80;;;;;;;17.48;100.00;102111.16;5004611;28;20148;-73
2023/05/31 08:30:48;;;;;;;18.33;6.43;;;;;;;17.54;100.00;102113.03;5013266;28;20077;-76
2023/05/31 08:33:15;;;;;;;21.65;7.55;;;;;;;17.66;100.00;102103.94;4999529;28;20455;-75
2023/05/31 08:35:41;;;;;;;17.55;6.78;;;;;;;17.76;100.00;102100.13;5006757;28;20050;-76
2023/05/31 08:38:08;;;;;;;18.38;7.50;;;;;;;17.86;100.00;102109.56;5005378;28;20495;-74
2023/05/31 08:40:35;;;;;;;22.25;7.20;;;;;;;17.87;100.00;102102.69;5006225;28;20083;-75
2023/05/31 08:43:21;;;;;;;27.75;5.82;;;;;;;17.98;100.00;102101.25;4997679;28;20046;-73
2023/05/31 08:45:51;;;;;;;16.95;6.45;;;;;;;18.12;100.00;102094.53;5006259;28;20137;-73
2023/05/31 08:48:24;;;;;;;16.67;6.20;;;;;;;18.29;100.00;102098.97;5005582;28;20161;-71
2023/05/31 08:50:52;;;;;;;18.67;5.60;;;;;;;18.43;100.00;102093.00;5005105;28;20496;-73
2023/05/31 08:53:23;;;;;;;15.98;5.80;;;;;;;18.46;100.00;102090.06;5000449;28;20728;-72
2023/05/31 08:55:51;;;;;;;14.35;5.88;;;;;;;18.52;100.00;102088.31;5006736;28;20049;-73
2023/05/31 08:58:18;;;;;;;17.40;6.07;;;;;;;18.63;100.00;102088.06;5011747;28;20133;-72
2023/05/31 09:00:46;;;;;;;15.50;5.68;;;;;;;18.82;100.00;102090.81;5006954;28;20049;-73
2023/05/31 09:03:12;;;;;;;16.92;5.47;;;;;;;18.95;100.00;102093.69;5005926;28;20046;-76
2023/05/31 09:05:39;;;;;;;15.77;5.43;;;;;;;19.07;100.00;102090.94;5004835;28;20131;-74
2023/05/31 09:08:06;;;;;;;12.27;4.93;;;;;;;19.22;100.00;102086.50;4998635;28;20054;-73
2023/05/31 09:10:33;;;;;;;12.80;4.85;;;;;;;19.42;100.00;102089.19;5002113;28;20050;-74
2023/05/31 09:12:59;;;;;;;14.10;5.13;;;;;;;19.53;100.00;102084.84;5000167;28;20096;-74
2023/05/31 09:15:27;;;;;;;18.02;5.95;;;;;;;19.59;100.00;102085.88;5001896;28;20050;-74
2023/05/31 09:17:57;;;;;;;14.95;4.78;;;;;;;19.62;100.00;102087.03;5008693;28;20122;-75
2023/05/31 09:20:33;;;;;;;12.48;5.00;;;;;;;19.79;100.00;102075.19;5011861;28;20056;-72
2023/05/31 09:23:06;;;;;;;12.88;4.95;;;;;;;19.88;100.00;102083.00;5007330;28;20050;-71
2023/05/31 09:25:50;;;;;;;16.25;5.45;;;;;;;19.92;100.00;102083.69;5008824;28;20602;-73
2023/05/31 09:28:18;;;;;;;12.55;4.32;;;;;;;20.07;100.00;102079.19;5007472;28;20104;-73
2023/05/31 09:30:45;;;;;;;11.45;4.35;;;;;;;20.13;100.00;102068.91;5003565;28;20141;-74
2023/05/31 09:33:13;;;;;;;15.40;4.88;;;;;;;20.17;100.00;102072.41;5005131;28;20049;-74
2023/05/31 09:35:58;;;;;;;11.40;4.28;;;;;;;20.24;100.00;102063.75;5009585;28;20080;-74
2023/05/31 09:38:35;;;;;;;13.88;4.15;;;;;;;20.29;100.00;102063.19;4999995;28;20157;-74
2023/05/31 09:41:23;;;;;;;12.68;4.78;;;;;;;20.40;100.00;102057.19;5010024;28;20053;-74
2023/05/31 09:43:50;;;;;;;12.63;4.45;;;;;;;20.43;100.00;102057.06;5008701;28;20601;-75
2023/05/31 09:46:19;;;;;;;11.85;4.70;;;;;;;20.48;100.00;102052.88;5009900;28;20104;-72
2023/05/31 09:48:57;;;;;;;11.07;3.80;;;;;;;20.61;100.00;102056.47;5001712;28;20054;-73
2023/05/31 09:51:24;;;;;;;10.57;3.78;;;;;;;20.77;100.00;102053.50;5003041;28;20049;-75
2023/05/31 09:53:55;;;;;;;10.75;3.75;;;;;;;20.86;100.00;102051.53;5009510;28;20108;-74
2023/05/31 09:56:23;;;;;;;8.68;3.42;;;;;;;20.95;100.00;102054.47;5007153;28;20041;-73
2023/05/31 09:58:51;;;;;;;14.50;4.78;;;;;;;21.06;100.00;102054.13;5001483;28;20116;-75
2023/05/31 10:01:21;;;;;;;13.13;3.53;;;;;;;21.11;95.54;102056.34;5007961;28;20053;-73
2023/05/31 10:03:49;;;;;;;12.13;3.25;;;;;;;21.18;93.99;102050.44;5017577;28;20049;-71
2023/05/31 10:06:17;;;;;;;11.63;3.25;;;;;;;21.27;96.24;102047.69;5001065;28;20471;-73
2023/05/31 10:08:48;;;;;;;9.70;3.40;;;;;;;21.42;100.00;102043.88;5006867;28;20054;-71
2023/05/31 10:11:34;;;;;;;12.98;4.03;;;;;;;21.62;98.34;102041.47;5008496;28;20444;-72
2023/05/31 10:14:23;;;;;;;8.20;3.40;;;;;;;21.80;96.78;102030.28;5004406;28;20076;-71
2023/05/31 10:16:53;;;;;;;12.00;3.40;;;;;;;21.86;93.63;102022.78;4997174;28;20052;-74
2023/05/31 10:19:31;;;;;;;10.43;3.22;;;;;;;21.94;90.58;102024.06;4999223;28;20050;-72
2023/05/31 10:22:00;;;;;;;8.50;3.42;;;;;;;22.00;84.13;102027.88;4999568;28;20100;-73
2023/05/31 10:24:33;;;;;;;12.43;3.10;;;;;;;21.99;86.45;102026.28;4993719;28;20054;-74
2023/05/31 10:27:08;;;;;;;7.78;2.92;;;;;;;22.11;86.55;102022.56;5003504;28;20049;-73
2023/05/31 10:29:46;;;;;;;;;;;;;;;22.24;85.70;102018.81;5006347;28;20060;-71
2023/05/31 10:32:21;;;;;;;10.68;3.80;;;;;;;22.18;86.74;102015.81;5002426;28;19963;-73
2023/05/31 10:34:49;;;;;;;9.88;2.92;;;;;;;22.29;85.99;102013.34;5009728;28;20515;-75
2023/05/31 10:37:15;;;;;;;7.32;2.50;;;;;;;22.24;82.30;102008.25;5005354;28;20225;-72
2023/05/31 10:39:45;;;;;;;12.93;3.17;;;;;;;22.43;85.80;102007.09;5002056;28;20223;-73
2023/05/31 10:42:23;;;;;;;10.00;3.20;;;;;;;22.44;79.54;101997.34;5004436;28;20588;-74
2023/05/31 10:45:03;;;;;;;10.40;3.00;;;;;;;22.46;78.95;101997.66;5002734;28;20739;-74
2023/05/31 10:48:15;;;;;;;8.88;2.90;;;;;;;22.62;78.76;101996.59;5007982;28;20181;-75
2023/05/31 10:50:59;;;;;;;8.52;3.05;;;;;;;22.77;79.66;101994.69;5005210;28;20132;-76
2023/05/31 10:53:35;;;;;;;11.32;3.08;;;;;;;22.89;77.82;101996.59;5008247;28;20045;-72
2023/05/31 10:56:10;;;;;;;15.18;3.78;;;;;;;23.01;80.95;101993.63;5002535;28;20049;-72
2023/05/31 10:58:42;;;;;;;11.63;2.95;;;;;;;23.09;80.30;101986.34;5000528;28;20053;-73
2023/05/31 11:01:13;;;;;;;8.82;3.08;;;;;;;23.08;76.85;101984.78;5001499;28;20165;-73
2023/05/31 11:03:48;;;;;;;10.60;2.80;;;;;;;23.06;77.19;101981.66;5012897;28;20129;-73
2023/05/31 11:06:19;;;;;;;9.57;2.88;;;;;;;23.27;77.74;101992.03;5012451;28;20125;-75
2023/05/31 11:09:09;;;;;;;11.98;3.20;;;;;;;23.41;75.32;101987.72;5004012;28;20134;-74
2023/05/31 11:11:36;;;;;;;10.43;2.97;;;;;;;23.50;72.26;101971.47;5006506;28;20049;-73
2023/05/31 11:14:25;;;;;;;11.88;2.95;;;;;;;23.62;74.18;101975.41;5007495;28;20037;-74